createdAt,value
2023-03-26T00:02:23.922Z,9.18
2023-03-26T00:04:56.138Z,9.26
2023-03-26T00:07:28.812Z,9.26
2023-03-26T00:10:00.996Z,9.28
2023-03-26T00:12:32.915Z,9.16
2023-03-26T00:15:05.550Z,9.04
2023-03-26T00:17:37.896Z,9.01
2023-03-26T00:20:12.886Z,9.02
2023-03-26T00:22:45.572Z,9.12
2023-03-26T00:25:17.776Z,9.15
2023-03-26T00:27:50.377Z,9.19
2023-03-26T00:30:22.549Z,9.17
2023-03-26T00:32:54.816Z,9.20
2023-03-26T00:35:27.181Z,9.19
2023-03-26T00:37:59.862Z,9.14
2023-03-26T00:40:32.044Z,9.14
2023-03-26T00:43:10.072Z,9.08
2023-03-26T00:45:42.291Z,9.05
2023-03-26T00:48:14.692Z,8.94
2023-03-26T00:50:48.759Z,8.95
2023-03-26T00:53:20.870Z,8.92
2023-03-26T00:55:53.494Z,8.91
2023-03-26T00:58:26.292Z,8.94
2023-03-26T01:01:01.146Z,8.93
2023-03-26T01:03:36.791Z,8.89
2023-03-26T01:06:12.825Z,8.92
2023-03-26T01:08:47.709Z,8.93
2023-03-26T01:11:21.687Z,8.89
2023-03-26T01:13:55.906Z,8.91
2023-03-26T01:16:32.527Z,8.96
2023-03-26T01:19:05.852Z,8.99
2023-03-26T01:21:38.687Z,9.01
2023-03-26T01:24:12.070Z,9.01
2023-03-26T01:27:24.426Z,9.05
2023-03-26T01:30:05.008Z,9.03
2023-03-26T01:32:59.534Z,9.04
2023-03-26T01:35:48.626Z,8.98
2023-03-26T01:38:29.636Z,8.99
2023-03-26T01:41:07.808Z,8.95
2023-03-26T01:43:47.372Z,8.94
2023-03-26T01:46:21.986Z,9.04
2023-03-26T01:48:55.415Z,9.11
2023-03-26T01:51:33.267Z,9.10
2023-03-26T01:54:09.955Z,9.06
2023-03-26T01:56:49.734Z,9.09
2023-03-26T01:59:37.677Z,9.10
2023-03-26T02:02:13.911Z,9.08
2023-03-26T02:04:53.991Z,9.09
2023-03-26T02:07:35.247Z,9.12
2023-03-26T02:10:13.771Z,9.17
2023-03-26T02:12:46.894Z,9.17
2023-03-26T02:15:19.453Z,9.17
2023-03-26T02:17:52.500Z,9.17
2023-03-26T02:20:25.724Z,9.19
2023-03-26T02:22:58.027Z,9.22
2023-03-26T02:25:29.030Z,9.22
2023-03-26T02:28:03.524Z,9.24
2023-03-26T02:30:35.698Z,9.24
2023-03-26T02:33:08.065Z,9.21
2023-03-26T02:35:46.107Z,9.23
2023-03-26T02:38:19.625Z,9.24
2023-03-26T02:40:51.522Z,9.26
2023-03-26T02:43:25.190Z,9.25
2023-03-26T02:45:57.511Z,9.20
2023-03-26T02:48:58.845Z,9.20
2023-03-26T02:51:29.599Z,9.24
2023-03-26T02:54:07.830Z,9.21
2023-03-26T02:56:58.573Z,9.20
2023-03-26T02:59:46.947Z,9.18
2023-03-26T03:02:44.457Z,9.20
2023-03-26T03:05:38.049Z,9.26
2023-03-26T03:08:30.966Z,9.25
2023-03-26T03:11:24.725Z,9.27
2023-03-26T03:13:57.490Z,9.31
2023-03-26T03:16:34.637Z,9.27
2023-03-26T03:19:13.678Z,9.27
2023-03-26T03:21:46.178Z,9.28
2023-03-26T03:24:19.023Z,9.20
2023-03-26T03:26:57.939Z,9.16
2023-03-26T03:29:41.432Z,9.19
2023-03-26T03:32:34.196Z,9.17
2023-03-26T03:35:10.099Z,9.11
2023-03-26T03:37:42.650Z,9.12
2023-03-26T03:40:15.158Z,9.06
2023-03-26T03:42:46.753Z,9.10
2023-03-26T03:45:20.339Z,9.12
2023-03-26T03:48:01.502Z,9.07
2023-03-26T03:50:40.546Z,9.11
2023-03-26T03:53:27.009Z,9.09
2023-03-26T03:56:01.960Z,9.11
2023-03-26T03:58:53.394Z,9.16
2023-03-26T04:01:33.028Z,9.20
2023-03-26T04:04:28.041Z,9.15
2023-03-26T04:07:06.427Z,9.13
2023-03-26T04:09:57.305Z,9.13
2023-03-26T04:12:31.994Z,8.99
2023-03-26T04:15:10.224Z,9.02
2023-03-26T04:17:44.070Z,9.07
2023-03-26T04:20:16.935Z,9.08
2023-03-26T04:22:49.900Z,9.09
2023-03-26T04:25:23.029Z,9.11
2023-03-26T04:28:10.576Z,9.13
2023-03-26T04:30:57.213Z,9.09
2023-03-26T04:33:39.166Z,9.09
2023-03-26T04:36:12.573Z,9.06
2023-03-26T04:38:49.115Z,8.99
2023-03-26T04:41:26.448Z,8.99
2023-03-26T04:44:02.929Z,9.06
2023-03-26T04:46:43.782Z,9.01
2023-03-26T04:49:24.343Z,8.98
2023-03-26T04:51:56.816Z,9.05
2023-03-26T04:54:48.702Z,9.06
2023-03-26T04:57:26.516Z,9.10
2023-03-26T05:00:19.263Z,9.02
2023-03-26T05:02:57.862Z,8.96
2023-03-26T05:05:30.859Z,9.04
2023-03-26T05:08:03.870Z,9.13
2023-03-26T05:10:36.382Z,9.09
2023-03-26T05:13:10.998Z,9.02
2023-03-26T05:15:45.441Z,8.97
2023-03-26T05:18:23.560Z,8.98
2023-03-26T05:20:58.012Z,8.99
2023-03-26T05:23:31.041Z,8.94
2023-03-26T05:26:22.769Z,8.99
2023-03-26T05:28:54.796Z,8.97
2023-03-26T05:31:30.756Z,8.97
2023-03-26T05:34:03.335Z,9.00
2023-03-26T05:36:35.604Z,9.00
2023-03-26T05:39:33.511Z,9.04
2023-03-26T05:42:25.675Z,9.05
2023-03-26T05:45:22.514Z,8.95
2023-03-26T05:47:56.541Z,8.82
2023-03-26T05:50:29.806Z,8.71
2023-03-26T05:53:05.236Z,8.71
2023-03-26T05:55:58.073Z,8.68
2023-03-26T05:58:59.821Z,8.69
2023-03-26T06:01:34.511Z,8.68
2023-03-26T06:04:25.044Z,8.73
2023-03-26T06:07:16.870Z,8.72
2023-03-26T06:09:53.432Z,8.72
2023-03-26T06:12:24.428Z,8.65
2023-03-26T06:14:56.866Z,8.71
2023-03-26T06:17:38.798Z,8.67
2023-03-26T06:20:19.494Z,8.62
2023-03-26T06:22:54.041Z,8.61
2023-03-26T06:25:30.045Z,8.59
2023-03-26T06:28:12.735Z,8.58
2023-03-26T06:31:10.940Z,8.61
2023-03-26T06:33:48.675Z,8.63
2023-03-26T06:36:19.842Z,8.56
2023-03-26T06:38:54.405Z,8.52
2023-03-26T06:41:26.541Z,8.55
2023-03-26T06:44:06.256Z,8.61
2023-03-26T06:47:13.168Z,8.68
2023-03-26T06:50:20.965Z,8.71
2023-03-26T06:53:05.502Z,8.75
2023-03-26T06:56:03.225Z,8.79
2023-03-26T06:59:03.576Z,8.84
2023-03-26T07:02:02.009Z,8.82
2023-03-26T07:05:07.001Z,8.80
2023-03-26T07:07:57.664Z,8.77
2023-03-26T07:10:49.161Z,8.77
2023-03-26T07:13:56.232Z,8.78
2023-03-26T07:16:49.772Z,8.85
2023-03-26T07:19:41.973Z,8.87
2023-03-26T07:22:21.151Z,8.96
2023-03-26T07:25:21.342Z,8.91
2023-03-26T07:28:40.135Z,8.93
2023-03-26T07:31:28.378Z,8.98
2023-03-26T07:34:32.916Z,9.09
2023-03-26T07:37:45.227Z,9.06
2023-03-26T07:40:58.562Z,9.06
2023-03-26T07:43:52.119Z,9.05
2023-03-26T07:46:48.139Z,9.11
2023-03-26T07:49:43.418Z,9.22
2023-03-26T07:52:22.349Z,9.20
2023-03-26T07:55:19.100Z,9.13
2023-03-26T07:58:24.232Z,9.10
2023-03-26T08:01:43.976Z,9.16
2023-03-26T08:04:56.991Z,9.27
2023-03-26T08:08:16.499Z,9.36
2023-03-26T08:11:14.314Z,9.41
2023-03-26T08:14:06.762Z,9.51
2023-03-26T08:16:47.920Z,9.58
2023-03-26T08:19:40.866Z,9.63
2023-03-26T08:22:15.664Z,9.58
2023-03-26T08:25:01.280Z,9.58
2023-03-26T08:27:40.273Z,9.63
2023-03-26T08:30:19.137Z,9.62
2023-03-26T08:32:58.596Z,9.65
2023-03-26T08:35:31.109Z,9.61
2023-03-26T08:38:02.108Z,9.63
2023-03-26T08:41:02.100Z,9.61
2023-03-26T08:43:58.274Z,9.63
2023-03-26T08:46:49.177Z,9.77
2023-03-26T08:50:10.113Z,9.91
2023-03-26T08:53:10.305Z,9.97
2023-03-26T08:55:53.518Z,9.90
2023-03-26T08:59:00.358Z,9.88
2023-03-26T09:01:49.768Z,9.85
2023-03-26T09:04:59.596Z,9.96
2023-03-26T09:07:59.666Z,10.01
2023-03-26T09:11:02.880Z,10.11
2023-03-26T09:13:59.319Z,10.05
2023-03-26T09:16:56.129Z,9.97
2023-03-26T09:19:57.036Z,9.94
2023-03-26T09:22:49.451Z,10.01
2023-03-26T09:25:50.852Z,10.10
2023-03-26T09:28:51.316Z,10.02
2023-03-26T09:32:02.502Z,9.97
2023-03-26T09:34:44.906Z,9.96
2023-03-26T09:37:26.019Z,9.99
2023-03-26T09:40:15.486Z,10.05
2023-03-26T09:42:54.402Z,10.17
2023-03-26T09:45:48.939Z,10.21
2023-03-26T09:48:42.079Z,10.30
2023-03-26T09:51:36.934Z,10.27
2023-03-26T09:54:37.292Z,10.41
2023-03-26T09:57:18.872Z,10.48
2023-03-26T10:00:09.988Z,10.55
2023-03-26T10:03:01.404Z,10.61
2023-03-26T10:05:46.174Z,10.66
2023-03-26T10:08:41.326Z,10.64
2023-03-26T10:11:20.315Z,10.59
2023-03-26T10:14:05.377Z,10.55
2023-03-26T10:16:49.205Z,10.47
2023-03-26T10:19:34.626Z,10.39
2023-03-26T10:22:17.678Z,10.21
2023-03-26T10:25:07.130Z,10.07
2023-03-26T10:27:50.676Z,10.04
2023-03-26T10:30:45.910Z,10.08
2023-03-26T10:33:31.784Z,10.17
2023-03-26T10:36:25.788Z,10.31
2023-03-26T10:39:35.992Z,10.31
2023-03-26T10:42:34.097Z,10.28
2023-03-26T10:45:25.606Z,10.23
2023-03-26T10:48:22.681Z,10.27
2023-03-26T10:51:08.958Z,10.35
2023-03-26T10:53:48.108Z,10.32
2023-03-26T10:56:26.561Z,10.38
2023-03-26T10:59:04.099Z,10.21
2023-03-26T11:01:48.073Z,9.99
2023-03-26T11:04:32.051Z,9.97
2023-03-26T11:07:19.906Z,10.01
2023-03-26T11:10:02.782Z,10.13
2023-03-26T11:12:43.095Z,10.29
2023-03-26T11:15:24.572Z,10.40
2023-03-26T11:18:07.052Z,10.52
2023-03-26T11:20:48.699Z,10.64
2023-03-26T11:23:34.519Z,10.76
2023-03-26T11:26:13.017Z,10.84
2023-03-26T11:29:32.393Z,10.88
2023-03-26T11:32:06.126Z,11.05
2023-03-26T11:34:41.704Z,11.37
2023-03-26T11:37:21.701Z,11.55
2023-03-26T11:39:57.691Z,11.47
2023-03-26T11:42:30.859Z,11.68
2023-03-26T11:45:08.599Z,11.89
2023-03-26T11:47:45.760Z,12.09
2023-03-26T11:50:23.017Z,12.25
2023-03-26T11:52:58.583Z,12.12
2023-03-26T11:55:33.575Z,11.89
2023-03-26T11:58:16.512Z,12.02
2023-03-26T12:00:48.749Z,12.04
2023-03-26T12:03:22.014Z,11.84
2023-03-26T12:05:59.520Z,11.56
2023-03-26T12:08:35.219Z,11.34
2023-03-26T12:11:13.236Z,11.21
2023-03-26T12:13:52.559Z,10.82
2023-03-26T12:16:25.273Z,10.43
2023-03-26T12:19:07.375Z,10.23
2023-03-26T12:21:49.612Z,9.92
2023-03-26T12:24:33.627Z,9.87
2023-03-26T12:27:28.507Z,9.97
2023-03-26T12:30:20.814Z,10.04
2023-03-26T12:32:57.132Z,10.14
2023-03-26T12:35:30.839Z,10.06
2023-03-26T12:38:28.985Z,10.01
2023-03-26T12:42:52.721Z,10.06
2023-03-26T12:44:54.711Z,10.37
2023-03-26T12:47:57.154Z,10.53
2023-03-26T12:50:18.343Z,10.82
2023-03-26T12:53:22.785Z,11.18
2023-03-26T12:56:05.244Z,11.42
2023-03-26T12:58:53.501Z,11.63
2023-03-26T13:01:35.488Z,11.80
2023-03-26T13:04:38.679Z,11.83
2023-03-26T13:07:18.412Z,11.98
2023-03-26T13:10:00.764Z,11.89
2023-03-26T13:12:41.870Z,12.02
2023-03-26T13:15:27.316Z,12.11
2023-03-26T13:18:16.282Z,12.30
2023-03-26T13:20:56.977Z,12.24
2023-03-26T13:23:40.797Z,12.25
2023-03-26T13:26:27.555Z,12.52
2023-03-26T13:29:08.049Z,12.55
2023-03-26T13:31:49.057Z,12.50
2023-03-26T13:34:30.917Z,12.23
2023-03-26T13:37:12.936Z,12.10
2023-03-26T13:39:55.006Z,12.05
2023-03-26T13:42:39.436Z,12.01
2023-03-26T13:45:24.605Z,11.72
2023-03-26T13:48:00.423Z,11.58
2023-03-26T13:50:35.000Z,11.60
2023-03-26T13:53:12.683Z,11.55
2023-03-26T13:55:48.684Z,11.58
2023-03-26T13:58:34.357Z,11.56
2023-03-26T14:01:11.237Z,11.70
2023-03-26T14:03:53.189Z,11.99
2023-03-26T14:06:42.032Z,12.18
2023-03-26T14:09:20.137Z,12.26
2023-03-26T14:12:21.191Z,12.13
2023-03-26T14:15:00.651Z,12.13
2023-03-26T14:17:39.643Z,12.14
2023-03-26T14:20:53.608Z,12.04
2023-03-26T14:23:49.928Z,12.28
2023-03-26T14:26:37.433Z,12.27
2023-03-26T14:29:32.620Z,12.22
2023-03-26T14:32:24.425Z,12.03
2023-03-26T14:35:21.716Z,12.06
2023-03-26T14:38:23.868Z,11.95
2023-03-26T14:41:03.098Z,11.78
2023-03-26T14:44:09.903Z,11.65
2023-03-26T14:47:04.682Z,11.61
2023-03-26T14:49:55.724Z,11.69
2023-03-26T14:52:40.575Z,11.86
2023-03-26T14:55:20.830Z,11.81
2023-03-26T14:58:07.486Z,11.89
2023-03-26T15:01:25.578Z,11.75
2023-03-26T15:04:33.557Z,11.51
2023-03-26T15:07:38.344Z,11.40
2023-03-26T15:10:49.634Z,11.36
2023-03-26T15:13:50.079Z,11.29
2023-03-26T15:16:55.286Z,11.16
2023-03-26T15:19:56.064Z,11.11
2023-03-26T15:22:59.441Z,11.01
2023-03-26T15:26:03.203Z,10.97
2023-03-26T15:28:49.641Z,11.01
2023-03-26T15:31:40.012Z,11.02
2023-03-26T15:34:43.868Z,11.02
2023-03-26T15:40:58.062Z,10.95
2023-03-26T15:44:23.955Z,10.95
2023-03-26T15:47:00.372Z,10.86
2023-03-26T15:49:43.374Z,10.89
2023-03-26T15:52:22.015Z,10.84
2023-03-26T15:55:01.303Z,10.80
2023-03-26T15:57:39.114Z,10.80
2023-03-26T16:00:24.458Z,10.84
2023-03-26T16:03:21.564Z,10.77
2023-03-26T16:06:15.862Z,10.69
2023-03-26T16:08:57.366Z,10.68
2023-03-26T16:11:55.701Z,10.78
2023-03-26T16:14:45.007Z,10.83
2023-03-26T16:17:21.168Z,10.80
2023-03-26T16:20:19.544Z,10.80
2023-03-26T16:23:01.699Z,10.86
2023-03-26T16:25:36.247Z,10.94
2023-03-26T16:28:32.622Z,10.97
2023-03-26T16:31:37.891Z,10.87
2023-03-26T16:34:30.132Z,10.83
2023-03-26T16:37:09.072Z,10.78
2023-03-26T16:39:45.745Z,10.74
2023-03-26T16:42:34.759Z,10.67
2023-03-26T16:45:23.148Z,10.59
2023-03-26T16:48:10.106Z,10.51
2023-03-26T16:50:52.285Z,10.42
2023-03-26T16:53:38.530Z,10.40
2023-03-26T16:56:18.073Z,10.44
2023-03-26T16:58:58.746Z,10.41
2023-03-26T17:01:42.916Z,10.28
2023-03-26T17:04:20.728Z,10.20
2023-03-26T17:07:15.022Z,10.13
2023-03-26T17:10:00.584Z,10.11
2023-03-26T17:12:40.481Z,10.04
2023-03-26T17:15:26.754Z,9.97
2023-03-26T17:18:13.630Z,9.88
2023-03-26T17:20:59.812Z,9.87
2023-03-26T17:23:44.654Z,9.83
2023-03-26T17:26:29.350Z,9.77
2023-03-26T17:29:13.460Z,9.79
2023-03-26T17:31:54.473Z,9.85
2023-03-26T17:35:00.611Z,9.77
2023-03-26T17:37:40.916Z,9.66
2023-03-26T17:40:55.513Z,9.62
2023-03-26T17:43:46.199Z,9.56
2023-03-26T17:46:38.997Z,9.60
2023-03-26T17:49:19.224Z,9.63
2023-03-26T17:51:55.202Z,9.68
2023-03-26T17:54:32.600Z,9.59
2023-03-26T17:57:08.405Z,9.60
2023-03-26T17:59:44.271Z,9.64
2023-03-26T18:02:19.726Z,9.66
2023-03-26T18:04:55.504Z,9.60
2023-03-26T18:07:57.223Z,9.51
2023-03-26T18:10:53.961Z,9.42
2023-03-26T18:13:53.798Z,9.42
2023-03-26T18:16:30.255Z,9.44
2023-03-26T18:19:05.518Z,9.38
2023-03-26T18:21:40.306Z,9.27
2023-03-26T18:24:19.359Z,9.23
2023-03-26T18:26:56.163Z,9.21
2023-03-26T18:29:30.776Z,9.16
2023-03-26T18:32:04.311Z,9.12
2023-03-26T18:34:39.738Z,9.08
2023-03-26T18:37:21.557Z,9.13
2023-03-26T18:40:12.386Z,9.22
2023-03-26T18:42:49.427Z,9.25
2023-03-26T18:45:30.801Z,9.28
2023-03-26T18:48:07.387Z,9.26
2023-03-26T18:50:43.113Z,9.25
2023-03-26T18:53:21.349Z,9.24
2023-03-26T18:55:55.082Z,9.17
2023-03-26T18:58:30.172Z,9.10
2023-03-26T19:01:05.113Z,9.04
2023-03-26T19:03:43.957Z,9.08
2023-03-26T19:06:17.896Z,9.03
2023-03-26T19:08:51.073Z,8.95
2023-03-26T19:11:23.291Z,8.96
2023-03-26T19:14:08.017Z,8.87
2023-03-26T19:16:43.657Z,9.28
2023-03-26T19:19:23.018Z,9.59
2023-03-26T19:21:58.365Z,9.33
2023-03-26T19:24:32.006Z,9.18
2023-03-26T19:27:04.112Z,9.03
2023-03-26T19:29:37.557Z,8.97
2023-03-26T19:32:20.007Z,8.76
2023-03-26T19:34:53.344Z,8.70
2023-03-26T19:37:30.023Z,8.63
2023-03-26T19:40:14.421Z,8.58
2023-03-26T19:42:47.450Z,8.51
2023-03-26T19:45:23.228Z,8.48
2023-03-26T19:48:07.749Z,8.46
2023-03-26T19:50:56.772Z,8.39
2023-03-26T19:53:34.858Z,8.36
2023-03-26T19:56:18.447Z,8.42
2023-03-26T19:58:51.418Z,8.44
2023-03-26T20:01:26.720Z,8.39
2023-03-26T20:04:01.989Z,8.33
2023-03-26T20:06:43.101Z,8.32
2023-03-26T20:09:16.752Z,8.27
2023-03-26T20:11:49.664Z,8.28
2023-03-26T20:14:26.130Z,8.27
2023-03-26T20:16:58.568Z,8.29
2023-03-26T20:19:31.261Z,8.29
2023-03-26T20:22:01.968Z,8.32
2023-03-26T20:24:35.424Z,8.24
2023-03-26T20:27:07.394Z,8.22
2023-03-26T20:29:40.087Z,8.23
2023-03-26T20:32:23.667Z,8.24
2023-03-26T20:34:57.776Z,8.18
2023-03-26T20:37:29.748Z,8.11
2023-03-26T20:40:01.566Z,8.09
2023-03-26T20:42:36.295Z,8.06
2023-03-26T20:45:18.602Z,8.03
2023-03-26T20:47:51.639Z,7.92
2023-03-26T20:50:26.774Z,7.85
2023-03-26T20:52:59.781Z,7.82
2023-03-26T20:55:32.691Z,7.73
2023-03-26T20:58:04.732Z,7.66
2023-03-26T21:00:37.265Z,7.65
2023-03-26T21:03:13.031Z,7.69
2023-03-26T21:05:48.394Z,7.71
2023-03-26T21:08:29.956Z,7.56
2023-03-26T21:11:03.011Z,7.32
2023-03-26T21:13:41.211Z,7.19
2023-03-26T21:16:14.887Z,7.19
2023-03-26T21:18:49.997Z,7.06
2023-03-26T21:21:34.375Z,7.03
2023-03-26T21:24:15.743Z,7.07
2023-03-26T21:26:55.442Z,7.16
2023-03-26T21:29:28.180Z,7.08
2023-03-26T21:31:58.970Z,7.06
2023-03-26T21:34:32.876Z,7.04
2023-03-26T21:37:09.167Z,7.02
2023-03-26T21:39:44.847Z,7.11
2023-03-26T21:42:17.826Z,7.19
2023-03-26T21:44:50.597Z,7.27
2023-03-26T21:47:21.395Z,7.19
2023-03-26T21:49:54.663Z,7.19
2023-03-26T21:52:28.075Z,7.17
2023-03-26T21:55:01.391Z,7.16
2023-03-26T21:57:54.876Z,7.18
2023-03-26T22:00:41.147Z,7.22
2023-03-26T22:03:29.511Z,7.22
2023-03-26T22:06:07.915Z,7.09
2023-03-26T22:08:42.083Z,7.13
2023-03-26T22:11:14.302Z,6.95
2023-03-26T22:13:47.189Z,6.93
2023-03-26T22:16:19.219Z,6.87
2023-03-26T22:18:51.094Z,6.79
2023-03-26T22:21:23.551Z,6.71
2023-03-26T22:23:55.620Z,6.64
2023-03-26T22:26:27.567Z,6.60
2023-03-26T22:28:59.618Z,6.57
2023-03-26T22:31:31.453Z,6.60
2023-03-26T22:34:03.362Z,6.61
2023-03-26T22:36:35.818Z,6.71
2023-03-26T22:39:08.627Z,6.63
2023-03-26T22:41:40.640Z,6.49
2023-03-26T22:44:19.848Z,6.27
2023-03-26T22:46:54.397Z,6.20
2023-03-26T22:49:30.100Z,6.15
2023-03-26T22:52:02.129Z,6.16
2023-03-26T22:54:34.404Z,6.23
2023-03-26T22:57:06.446Z,6.37
2023-03-26T22:59:38.441Z,6.22
2023-03-26T23:02:12.420Z,6.26
2023-03-26T23:04:46.301Z,6.25
2023-03-26T23:07:18.472Z,6.26
2023-03-26T23:09:50.539Z,6.21
2023-03-26T23:12:22.347Z,6.22
2023-03-26T23:14:54.414Z,6.18
2023-03-26T23:17:27.146Z,6.11
2023-03-26T23:20:00.528Z,6.09
2023-03-26T23:22:32.763Z,6.13
2023-03-26T23:25:04.738Z,6.13
2023-03-26T23:27:36.791Z,6.11
2023-03-26T23:30:11.826Z,6.09
2023-03-26T23:32:43.973Z,5.91
2023-03-26T23:35:16.036Z,5.83
2023-03-26T23:37:50.758Z,5.74
2023-03-26T23:40:22.925Z,5.67
2023-03-26T23:42:54.930Z,5.75
2023-03-26T23:45:27.284Z,5.78
2023-03-26T23:47:59.280Z,5.83
2023-03-26T23:50:31.524Z,5.85
2023-03-26T23:53:03.484Z,5.80
2023-03-26T23:55:36.512Z,5.74
2023-03-26T23:58:08.946Z,5.65
